x

Saginaw Bay Light #1, Mi (sblm4) Weather Station

10:00am - Mon 22nd Dec 2014 All times are CST. -6 hours from GMT.

  • Wind
    7mph, 8mph gusts
  • Air Temp 31°f
  • Sea Pressure 1018.6mb
  • Saginaw Bay Light #1, Mi
  • Saginaw Bay Light #1, Mi

More Historic Weather Station data

Upgrade to MSW Pro to gain access to the past 30 days of data for over 8000 Wavebouys and Weather Stations around the globe.

Join Pro

Comparision Forecast

View Surf forecast
   
Mon 12/22 10:00am 7 8 mph 1018.6mb 31f
9:50am 7 9 mph 1019mb 31f
9:40am 8 9 mph 1019mb 30f
9:30am 8 10 mph 1019mb 30f
9:20am 9 10 mph 1019mb 30f
9:10am 9 11 mph 1019mb 30f
9:00am 9 13 mph 1019mb 30f
8:50am 11 13 mph 1019mb 29f
8:40am 11 13 mph 1019mb 30f
8:30am 11 13 mph 1019mb 30f
8:20am 11 13 mph 1019mb 29f
8:10am 13 14 mph 1018.6mb 29f
8:00am 13 15 mph 1019mb 29f
7:50am 14 15 mph 1018.6mb 29f
7:40am 14 15 mph 1019mb 29f
7:30am 14 15 mph 1019.3mb 29f
7:20am 13 16 mph 1019.3mb 29f
7:10am 14 17 mph 1019mb 29f
7:00am 15 17 mph 1019mb 29f
6:50am 15 16 mph 1019mb 29f
6:40am 14 16 mph 1019mb 29f
6:30am 14 16 mph 1019.3mb 29f
6:20am 14 16 mph 1019.3mb 29f
6:10am 14 17 mph 1019.3mb 29f
6:00am 15 18 mph 1019.3mb 29f
5:50am 16 18 mph 1019.3mb 29f
5:40am 15 18 mph 1019.3mb 29f
5:30am 15 17 mph 1019.6mb 29f
5:20am 15 17 mph 1019.6mb 29f
5:10am 14 17 mph 1019.6mb 29f
5:00am 16 18 mph 1019.6mb 30f
4:50am 15 17 mph 1019.3mb 30f
4:40am 13 14 mph 1019.6mb 30f
4:30am 14 15 mph 1019.6mb 30f
4:20am 14
mph
1019.6mb 30f
4:10am 13 14 mph 1019.6mb 30f
4:00am 13 15 mph 1019.6mb 30f
3:50am 13 16 mph 1019.6mb 30f
3:40am 13 16 mph 1019.6mb 30f
3:30am 14 16 mph 1019.6mb 30f
3:20am 14 17 mph 1019.6mb 30f
3:10am 15 18 mph 1019.6mb 30f
3:00am 13 15 mph 1019.6mb 30f
2:50am 14 17 mph 1019.3mb 30f
2:40am 14 17 mph 1019.6mb 30f
2:30am 16 20 mph 1019.3mb 30f
2:20am 15 18 mph 1019.6mb 30f
2:10am 15 17 mph 1020mb 30f
2:00am 16 18 mph 1020mb 30f
1:50am 17 18 mph 1020mb 31f
1:40am 16 18 mph 1020mb 31f
1:30am 16 18 mph 1020mb 31f
1:20am 16 17 mph 1020mb 31f
1:10am 14 17 mph 1020mb 31f
1:00am 16 17 mph 1020mb 31f
12:50am 14 16 mph 1020mb 31f
12:40am 15 16 mph 1020mb 31f
12:30am 15 16 mph 1020.3mb 31f
12:20am 15 18 mph 1020.3mb 31f
12:10am 16 18 mph 1020.3mb 31f
12:00am 17 20 mph 1020.7mb 31f
Sun 12/21 11:50pm 17 20 mph 1020.7mb 31f
11:40pm 17 22 mph 1020.7mb 31f
11:30pm 18 22 mph 1021mb 31f
11:20pm 20 23 mph 1021mb 31f
11:10pm 18 23 mph 1021mb 31f
11:00pm 21 24 mph 1021mb 31f
10:50pm 21 23 mph 1021mb 31f
10:40pm 20 22 mph 1021mb 31f
10:30pm 17 21 mph 1021.3mb 31f
10:20pm 18 20 mph 1021.3mb 31f
10:10pm 16 18 mph 1021.3mb 32f
10:00pm 17 20 mph 1021.3mb 32f
9:50pm 17 18 mph 1021.3mb 32f
9:40pm 16 17 mph 1021.3mb 32f
9:30pm 16 17 mph 1021.3mb 32f
9:20pm 15
mph
1021.7mb 32f
9:10pm 14 16 mph 1021.7mb 32f
9:00pm 15 17 mph 1021.7mb 32f
8:50pm 15 17 mph 1021.3mb 32f
8:40pm 15 16 mph 1021.7mb 32f
8:30pm 14 16 mph 1021.7mb 32f
8:20pm 15 16 mph 1021.7mb 32f
8:10pm 14 15 mph 1021.7mb 32f
8:00pm 13 15 mph 1021.7mb 32f
7:50pm 13 14 mph 1021.7mb 32f
7:40pm 11 14 mph 1021.7mb 32f
7:30pm 11 13 mph 1021.7mb 32f
7:20pm 11 13 mph 1022mb 32f
7:10pm 11 13 mph 1022mb 32f
7:00pm 11
mph
1022mb 32f
6:50pm 10 11 mph 1022.4mb 32f
6:40pm 10 11 mph 1022.4mb 32f
6:30pm 10
mph
1022.4mb 32f
6:20pm 10 11 mph 1022.4mb 32f
6:10pm 11 13 mph 1022.4mb 32f
6:00pm 11 13 mph 1022.4mb 32f
5:50pm 10 11 mph 1022.4mb 32f
5:40pm 11 13 mph 1022.4mb 32f
5:30pm 11 13 mph 1022.4mb 32f
5:20pm 11 13 mph 1022.4mb 32f
5:10pm 11 13 mph 1022.7mb 32f
5:00pm 11 14 mph 1022.7mb 32f
4:50pm 13 14 mph 1022.7mb 32f
4:40pm 11 13 mph 1022.7mb 32f
4:30pm 13 14 mph 1022.7mb 32f
4:20pm 11 13 mph 1022.7mb 32f
4:10pm 11 14 mph 1022.7mb 32f
4:00pm 14 15 mph 1022.4mb 32f
3:50pm 11 14 mph 1022.4mb 32f
3:40pm 13 14 mph 1022.4mb 32f
3:30pm 11 13 mph 1022.4mb 32f
3:20pm 11 13 mph 1022.4mb 32f
3:10pm 11 13 mph 1022.4mb 32f
3:00pm 11 13 mph 1022.4mb 32f
2:50pm 13 14 mph 1022.4mb 32f
2:40pm 11 13 mph 1022.4mb 32f
2:30pm 11 14 mph 1022.4mb 32f
2:20pm 11 13 mph 1022.4mb 32f
2:10pm 11 14 mph 1022.4mb 32f
2:00pm 13 14 mph 1022.4mb 32f
1:50pm 11 14 mph 1022.4mb 32f
1:40pm 13 14 mph 1022.4mb 32f
1:30pm 13 15 mph 1022.4mb 31f
1:20pm 14 16 mph 1022.4mb 31f
1:10pm 15 16 mph 1022.4mb 31f
1:00pm 14 15 mph 1022.7mb 31f
12:50pm 14 15 mph 1022.7mb 31f
12:40pm 14 15 mph 1022.7mb 31f
12:30pm 14 15 mph 1022.7mb 31f
12:20pm 14 15 mph 1023mb 31f
12:10pm 14 15 mph 1023mb 31f
12:00pm 15 16 mph 1023mb 31f
11:50am 15 16 mph 1023mb 31f
11:40am 14 16 mph 1023.4mb 31f
11:30am 14 16 mph 1023.4mb 31f
11:20am 15 16 mph 1023.4mb 31f
11:10am 14 15 mph 1023.7mb 30f
11:00am 13 15 mph 1023.7mb 30f
10:50am 13 14 mph 1024mb 30f
10:40am 11 14 mph 1024mb 30f
10:30am 14 15 mph 1024.4mb 30f
10:20am 13 15 mph 1024.4mb 30f
10:10am 14 15 mph 1024.4mb 30f
10:00am 13 14 mph 1024.7mb 29f
9:50am 13 14 mph 1024.7mb 29f
9:40am 11 13 mph 1024.7mb 29f
9:30am 13 14 mph 1024.7mb 29f
9:20am 13 14 mph 1024.7mb 29f
9:10am 11 13 mph 1024.7mb 29f
9:00am 13 14 mph 1024.7mb 29f
8:50am 14
mph
1024.7mb 29f
8:40am 11 13 mph 1024.7mb 29f
8:30am 11 14 mph 1024.7mb 29f
8:20am 14 15 mph 1024.7mb 29f
8:10am 13 15 mph 1024.7mb 29f
8:00am 13 14 mph 1024.7mb 29f
7:50am 11 14 mph 1024.7mb 29f
7:40am 13 14 mph 1024.7mb 29f
7:30am 11 13 mph 1024.7mb 29f
7:20am 11 13 mph 1024.7mb 29f
7:10am 11 13 mph 1024.7mb 29f
7:00am 11 13 mph 1024.7mb 29f
6:50am 10 11 mph 1024.7mb 29f
6:40am 10 11 mph 1024.7mb 29f
6:30am 10 11 mph 1024.7mb 29f
6:20am 10 11 mph 1024.7mb 29f
6:10am 9 10 mph 1024.7mb 28f
6:00am 9 10 mph 1025.1mb 28f
5:50am 9 10 mph 1025.1mb 28f
5:40am 8 9 mph 1025.1mb 28f
5:30am 8 9 mph 1025.1mb 28f
5:20am 8 9 mph 1025.1mb 28f
5:10am 8 10 mph 1024.7mb 28f
5:00am 9 11 mph 1025.1mb 28f
4:50am 9 10 mph 1024.7mb 28f
4:40am 10 11 mph 1024.7mb 28f
4:30am 10 11 mph 1024.7mb 29f
4:20am 10 13 mph 1024.7mb 28f
4:10am 9 10 mph 1024.7mb 29f
4:00am 8 9 mph 1024.7mb 28f
3:50am 8
mph
1024.7mb 28f
3:40am 7 9 mph 1024.4mb 28f
3:30am 8 9 mph 1024.7mb 28f
3:20am 8 9 mph 1024.7mb 28f
3:10am 8 9 mph 1024.7mb 28f
3:00am 7 8 mph 1024.7mb 28f
2:50am 7
mph
1024.7mb 28f
2:40am 5 7 mph 1024.7mb 28f
2:30am 6 7 mph 1024.7mb 28f
2:20am 5 6 mph 1024.7mb 28f
2:10am 5 7 mph 1024.7mb 28f
2:00am 6 7 mph 1024.7mb 28f
1:50am 6 7 mph 1025.1mb 28f
1:40am 6 7 mph 1025.1mb 28f
1:30am 5 6 mph 1025.1mb 28f
1:20am 5
mph
1024.7mb 28f
1:10am 5
mph
1024.7mb 28f
1:00am 3 5 mph 1024.7mb 28f
12:50am 5 6 mph 1024.4mb 28f
12:40am 5
mph
1024.7mb 28f
12:30am 5 6 mph 1024.4mb 28f
12:20am 5 6 mph 1024.4mb 28f
12:10am 5 6 mph 1024.4mb 28f
12:00am 5 6 mph 1024.4mb 28f
Sat 12/20 11:50pm 5 7 mph 1024.4mb 28f
11:40pm 5 6 mph 1024.4mb 28f
11:30pm 5 6 mph 1024.4mb 28f
11:20pm 5 6 mph 1024.4mb 28f
11:10pm 6 7 mph 1024.7mb 28f
11:00pm 6 7 mph 1024.7mb 28f
10:50pm 5 6 mph 1024.7mb 28f
10:40pm 6
mph
1024.7mb 28f
10:30pm 6 7 mph 1024.7mb 28f
10:20pm 7
mph
1024.7mb 28f
10:10pm 6 8 mph 1024.7mb 28f
10:00pm 7 8 mph 1024.7mb 28f
9:50pm 7 8 mph 1024.7mb 28f
9:40pm 8
mph
1024.7mb 28f
9:30pm 7 8 mph 1024.7mb 28f
9:20pm 7 8 mph 1024.7mb 28f
9:10pm 7
mph
1024.7mb 28f
9:00pm 6 7 mph 1024.7mb 28f
8:50pm 6 7 mph 1024.7mb 28f
8:40pm 6 7 mph 1024.7mb 28f
8:30pm 6 7 mph 1024.7mb 28f
8:20pm 5 6 mph 1024.7mb 28f
8:10pm 5 6 mph 1024.7mb 28f
8:00pm 5 6 mph 1024.7mb 28f
7:50pm 5 6 mph 1024.7mb 28f
7:40pm 5 6 mph 1024.7mb 28f
7:30pm 5 6 mph 1024.7mb 28f
7:20pm 5 6 mph 1024.7mb 28f
7:10pm 5
mph
1025.1mb 28f
7:00pm 3 5 mph 1025.1mb 28f
6:50pm 3 5 mph 1025.1mb 28f
6:40pm 5
mph
1025.1mb 28f
6:30pm 3 5 mph 1025.1mb 28f
6:20pm 3 5 mph 1025.1mb 28f
6:10pm 3 5 mph 1025.1mb 28f
6:00pm 3
mph
1025.1mb 28f
5:50pm 2 3 mph 1025.1mb 27f
5:40pm 2 3 mph 1025.1mb 27f
5:30pm 1 3 mph 1025.1mb 27f
5:20pm 2 3 mph 1025.1mb 27f
5:10pm 2
mph
1025.1mb 28f
5:00pm 1 2 mph 1024.7mb 27f
4:50pm  -  2 mph 1024.7mb 27f
4:40pm  -  mph 1024.7mb 27f
4:30pm  -  mph 1024.7mb 27f
4:20pm  -  1 mph 1024.7mb 28f
4:10pm  -  2 mph 1024.7mb 28f
4:00pm 2
mph
1024.7mb 28f
3:50pm 2 3 mph 1024.7mb 28f
3:40pm 2 5 mph 1024.7mb 28f
3:30pm 3 5 mph 1024.4mb 28f
3:20pm 5
mph
1024.7mb 28f
3:10pm 3 5 mph 1024.4mb 28f
3:00pm 2 5 mph 1024.7mb 28f
2:50pm 3 5 mph 1024.4mb 28f
2:40pm 3 5 mph 1024.4mb 28f
2:30pm 5 6 mph 1024.4mb 28f
2:20pm 5
mph
1024.4mb 29f
2:10pm 3 5 mph 1024.4mb 30f
2:00pm 3
mph
1024.4mb 29f
1:50pm 2 3 mph 1024.4mb 30f
1:40pm 1 2 mph 1024.4mb 31f
1:30pm 1 3 mph 1024.4mb 31f
1:20pm 2 5 mph 1024.4mb 29f
1:10pm 1 2 mph 1024mb 30f
1:00pm  -  1 mph 1024.4mb 30f
12:50pm  -  2 mph 1024.4mb 29f
12:40pm 2
mph
1024.4mb 30f
12:30pm 1 2 mph 1024.4mb 29f
12:20pm 2 3 mph 1024.7mb 27f
12:10pm 1 2 mph 1024.7mb 28f
12:00pm 2 3 mph 1024.7mb 28f
11:50am 3 5 mph 1025.1mb 26f
11:40am 2 3 mph 1025.1mb 26f
11:30am 2 5 mph 1025.1mb 26f
11:20am 2 3 mph 1025.1mb 26f
11:10am 2 3 mph 1025.1mb 26f
11:00am 3 5 mph 1025.4mb 26f
10:50am 2 3 mph 1025.4mb 25f
10:40am 2
mph
1025.4mb 25f
10:30am 2 3 mph 1025.4mb 25f
10:20am 1 3 mph 1025.7mb 25f
10:10am  -  2 mph 1025.7mb 26f
10:00am 2 3 mph 1025.7mb 26f
9:50am 1 2 mph 1025.7mb 26f
9:40am  -  2 mph 1025.7mb 26f
9:30am 1 3 mph 1026.1mb 25f
9:20am 2 3 mph 1026.1mb 25f
9:10am 2 3 mph 1025.7mb 25f
9:00am 2 3 mph 1025.7mb 25f
8:50am 2 5 mph 1025.7mb 25f
8:40am 3 5 mph 1025.7mb 25f
8:30am 3 5 mph 1026.1mb 25f
8:20am 5 6 mph 1025.7mb 25f
8:10am 5 6 mph 1025.7mb 25f
8:00am 3 5 mph 1025.7mb 25f
7:50am 5 6 mph 1025.7mb 25f
7:40am 5 6 mph 1025.7mb 25f
7:30am 3 5 mph 1025.7mb 25f
7:20am 5 6 mph 1025.7mb 25f
7:10am 5 6 mph 1025.7mb 25f
7:00am 5 7 mph 1025.7mb 25f
6:50am 5 6 mph 1025.7mb 24f
6:40am 5 6 mph 1025.7mb 25f
6:30am 5 6 mph 1025.7mb 25f
6:20am 6 7 mph 1025.7mb 25f
6:10am 6
mph
1025.7mb 25f
6:00am 5
mph
1025.7mb 25f
5:50am 3 5 mph 1025.4mb 25f
5:40am 2 5 mph 1025.4mb 25f
5:30am 2 5 mph 1025.4mb 25f
5:20am 3 5 mph 1025.4mb 25f
5:10am 5 6 mph 1025.4mb 25f
5:00am 5 6 mph 1025.4mb 25f
4:50am 6 7 mph 1025.4mb 25f
4:40am 6 8 mph 1025.4mb 25f
4:30am 7 8 mph 1025.4mb 26f
4:20am 8 9 mph 1025.4mb 26f
4:10am 7 9 mph 1025.4mb 26f
4:00am 8
mph
1025.4mb 26f
3:50am 7 8 mph 1025.1mb 26f
3:40am 6 7 mph 1025.1mb 26f
3:30am 5 6 mph 1025.1mb 26f
3:20am 5 6 mph 1024.7mb 26f
3:10am 5 6 mph 1024.7mb 27f
3:00am 5 6 mph 1024.7mb 27f
2:50am 3 5 mph 1025.1mb 27f
2:40am 5
mph
1025.1mb 26f
2:30am 3 6 mph 1025.1mb 27f
2:20am 6 7 mph 1025.1mb 27f
2:10am 6 7 mph 1025.1mb 27f
2:00am 6 7 mph 1025.1mb 27f
1:50am 7 8 mph 1025.1mb 27f
1:40am 8 9 mph 1025.1mb 27f
1:30am 8
mph
1025.1mb 27f
1:20am 5 7 mph 1025.1mb 28f
1:10am 5 6 mph 1024.7mb 28f
1:00am 5 6 mph 1024.7mb 28f
12:50am 5 6 mph 1024.7mb 28f
12:40am 3 8 mph 1024.7mb 28f
12:30am 6 7 mph 1024.7mb 27f
12:20am 5 6 mph 1024.7mb 28f
12:10am 1 3 mph 1024.7mb 28f
12:00am  -  1 mph 1024.7mb 28f
Fri 12/19 11:50pm  -  1 mph 1024.4mb 28f
11:40pm  -  mph 1024.4mb 27f
11:30pm  -  1 mph 1024.4mb 27f
11:20pm  -  mph 1024.4mb 27f
11:10pm  -  mph 1024.4mb 28f
11:00pm  -  2 mph 1024.4mb 28f
10:50pm  -  1 mph 1024.4mb 28f
10:40pm 1 2 mph 1024.4mb 28f
10:30pm  -  mph 1024.4mb 28f
10:20pm  -  1 mph 1024.4mb 28f
10:10pm  -  mph 1024.4mb 28f
10:00pm  -  3 mph 1024.4mb 28f
9:50pm 2 3 mph 1024.7mb 28f
9:40pm 2 3 mph 1024.7mb 28f
9:30pm 3 6 mph 1025.1mb 28f
9:20pm 6 7 mph 1025.1mb 28f
9:10pm 7 9 mph 1025.1mb 28f
9:00pm 8 11 mph 1025.4mb 28f
8:50pm 10 13 mph 1025.7mb 28f
8:40pm 10 11 mph 1025.7mb 28f
8:30pm 10 13 mph 1025.7mb 28f
8:20pm 10 11 mph 1025.7mb 28f
8:10pm 8 10 mph 1025.7mb 28f
8:00pm 8 9 mph 1025.7mb 28f
7:50pm 8 10 mph 1025.7mb 29f
7:40pm 8 9 mph 1025.7mb 28f
7:30pm 8 9 mph 1025.7mb 28f
7:20pm 7 8 mph 1026.1mb 28f
7:10pm 6 8 mph 1026.1mb 28f
7:00pm 7 8 mph 1026.1mb 28f
6:50pm 6 7 mph 1026.1mb 28f
6:40pm 6 7 mph 1026.1mb 28f
6:30pm 6 7 mph 1025.7mb 27f
6:20pm 5 6 mph 1025.7mb 27f
6:10pm 6 7 mph 1025.7mb 27f
6:00pm 5 6 mph 1025.4mb 27f
5:50pm 3 5 mph 1025.4mb 27f
5:40pm 5 6 mph 1025.4mb 27f
5:30pm 5 7 mph 1025.1mb 27f
5:20pm 6
mph
1025.1mb 27f
5:10pm 5 6 mph 1025.1mb 27f
5:00pm 5 6 mph 1025.1mb 27f
4:50pm 5 6 mph 1024.7mb 27f
4:40pm 5
mph
1024.7mb 27f
4:30pm 3 5 mph 1024.7mb 27f
4:20pm 5
mph
1024.7mb 27f
4:10pm 5
mph
1024.7mb 27f
4:00pm 5 6 mph 1024.4mb 28f
3:50pm 5
mph
1024.4mb 30f
3:40pm 3 5 mph 1024.4mb 32f
3:30pm 2 3 mph 1024.4mb 34f
3:20pm 2 3 mph 1024mb 35f
3:10pm 2 3 mph 1024mb 36f
3:00pm 2
mph
1024mb 37f
2:50pm 2
mph
1024mb 37f
2:40pm  -  2 mph 1024mb 37f
2:30pm 2 3 mph 1024mb 36f
2:20pm 1 2 mph 1024mb 36f
2:10pm 2 5 mph 1024mb 35f
2:00pm 3 5 mph 1024mb 34f
1:50pm 2
mph
1024mb 37f
1:40pm  -  1 mph 1024mb 37f
1:30pm  -  1 mph 1024mb 32f
1:20pm  -  1 mph 1024mb 30f
1:10pm  -  2 mph 1024mb 28f
1:00pm  -  2 mph 1024mb 28f
12:50pm 2 5 mph 1024.4mb 26f
12:40pm 3 6 mph 1024.4mb 26f
12:30pm 3 6 mph 1024.4mb 26f
12:20pm 5 6 mph 1024.4mb 25f
12:10pm 5 6 mph 1024.4mb 25f
12:00pm 3 6 mph 1024.4mb 25f
11:50am 3 6 mph 1024mb 25f
11:40am 6 7 mph 1024.4mb 25f
11:30am 6 7 mph 1024.4mb 24f
11:20am 5 7 mph 1024.4mb 24f
11:10am 6 7 mph 1024.4mb 24f
11:00am 6 8 mph 1024.4mb 24f
10:50am 6 8 mph 1024.7mb 24f
10:40am 6 7 mph 1024.7mb 24f
10:30am 5 7 mph 1025.1mb 23f
10:20am 5 7 mph 1025.1mb 23f
10:10am 6 8 mph 1025.4mb 23f
10:00am 6 8 mph 1025.4mb 23f
9:50am 7 9 mph 1025.4mb 23f
9:40am 7 10 mph 1025.4mb 23f
9:30am 8 9 mph 1025.4mb 22f
9:20am 8 10 mph 1025.4mb 22f
9:10am 8 10 mph 1025.1mb 22f
9:00am 9 11 mph 1025.1mb 22f
8:50am 9 11 mph 1025.1mb 22f
8:40am 9 11 mph 1025.1mb 22f
8:30am 10 13 mph 1025.1mb 22f
8:20am 10 13 mph 1025.1mb 22f
8:10am 11 14 mph 1024.7mb 21f
8:00am 11 15 mph 1024.7mb 22f
7:50am 11 14 mph 1024.7mb 22f
7:40am 11 13 mph 1024.4mb 22f
7:30am 13 14 mph 1024.4mb 22f
7:20am 13 15 mph 1024.4mb 22f
7:10am 13 14 mph 1024.4mb 22f
7:00am 13 15 mph 1024.4mb 22f
6:50am 11 14 mph 1024.4mb 22f
6:40am 13 15 mph 1024.4mb 22f
6:30am 13 16 mph 1024mb 22f
6:20am 14 16 mph 1024mb 22f
6:10am 14 16 mph 1024mb 23f
6:00am 14 15 mph 1024mb 23f
5:50am 14 16 mph 1024mb 23f
5:40am 14 16 mph 1023.7mb 23f
5:30am 13 15 mph 1023.7mb 23f
5:20am 13 15 mph 1023.4mb 23f
5:10am 14 15 mph 1023.4mb 23f
5:00am 13 15 mph 1023.4mb 23f
4:50am 13 15 mph 1023.4mb 23f
4:40am 13 15 mph 1023.4mb 23f
4:30am 14 16 mph 1023.4mb 23f
4:20am 14 15 mph 1023.4mb 23f
4:10am 13 16 mph 1023mb 24f
4:00am 14 15 mph 1023mb 23f
3:50am 13 16 mph 1023mb 24f
3:40am 13 15 mph 1023mb 24f
3:30am 14 16 mph 1023mb 24f
3:20am 13 16 mph 1022.7mb 24f
3:10am 14 16 mph 1023mb 24f
3:00am 15 17 mph 1023mb 24f
2:50am 15 17 mph 1023mb 24f
2:40am 15 17 mph 1022.7mb 24f
2:30am 16 17 mph 1022.7mb 24f
2:20am 15 17 mph 1022.7mb 24f
2:10am 15 17 mph 1022.7mb 24f
2:00am 15 16 mph 1022.7mb 24f
1:50am 16 17 mph 1022.7mb 24f
1:40am 16 18 mph 1022.7mb 24f
1:30am 16 18 mph 1022.7mb 24f
1:20am 16 18 mph 1022.7mb 24f
1:10am 17 18 mph 1022.4mb 25f
1:00am 15 18 mph 1022.4mb 25f
12:50am 15 17 mph 1022.4mb 25f
12:40am 15 16 mph 1022.4mb 25f
12:30am 14 16 mph 1022.4mb 25f
12:20am 13 17 mph 1022.7mb 25f
12:10am 15 16 mph 1022.7mb 25f
12:00am 14 16 mph 1022.7mb 25f
Thu 12/18 11:50pm 14 15 mph 1022.7mb 25f
11:40pm 14 16 mph 1022.7mb 25f
11:30pm 13 15 mph 1022.7mb 25f
11:20pm 11 14 mph 1022.7mb 25f
11:10pm 11 15 mph 1022.7mb 25f
11:00pm 11 14 mph 1022.7mb 25f
10:50pm 13 14 mph 1022.7mb 25f
10:40pm 10 14 mph 1022.7mb 25f
10:30pm 13 15 mph 1022.7mb 25f
10:20pm 11 14 mph 1022.7mb 25f
10:10pm 11 14 mph 1022.7mb 25f
10:00pm 10 13 mph 1022.7mb 25f
9:50pm 10 11 mph 1022.7mb 25f
9:40pm 10 13 mph 1022.7mb 25f
9:30pm 11 13 mph 1022.4mb 25f
9:20pm 10 13 mph 1022.4mb 25f
9:10pm 11 14 mph 1022.4mb 25f
9:00pm 10 11 mph 1022.4mb 25f
8:50pm 10 13 mph 1022.4mb 25f
8:40pm 8 10 mph 1022.4mb 25f
8:30pm 7 9 mph 1022.4mb 25f
8:20pm 7 10 mph 1022.4mb 25f
8:10pm 7 11 mph 1022.4mb 25f
8:00pm 8 9 mph 1022.4mb 25f
7:50pm 8 14 mph 1022.4mb 25f
7:40pm 11 16 mph 1022.4mb 25f
7:30pm 13 16 mph 1022.4mb 25f
7:20pm 7 13 mph 1022.4mb 25f
7:10pm 13 15 mph 1022.4mb 25f
7:00pm 9 13 mph 1022.4mb 25f
6:50pm 10 13 mph 1022.4mb 25f
6:40pm 10 13 mph 1022.4mb 25f
6:30pm 7 14 mph 1022.7mb 25f
6:20pm 9 11 mph 1022.4mb 26f
6:10pm 8 11 mph 1022.4mb 26f
6:00pm 10 15 mph 1022.4mb 26f
5:50pm 13 16 mph 1022mb 26f
5:40pm 14 16 mph 1022mb 26f
5:30pm 9 14 mph 1022mb 26f